Time;durP1;ratioP1;P1;durP2;ratioP2;P2;SDS_P1;SDS_P2;PMS_P1;PMS_P2;Temp;Humidity;BMP_temperature;BMP_pressure;BME280_temperature;BME280_humidity;BME280_pressure;Samples;Min_cycle;Max_cycle;Signal;HPM_P1;HPM_P2
2023/01/25 07:39:20;;;;;;;;;19.25;15.25;;;;;17.28;42.05;103068.78;5042483;27;45804;-69
2023/01/25 07:41:46;;;;;;;;;9.50;8.25;;;;;17.70;42.46;103056.09;5057001;27;45756;-71
2023/01/25 07:44:11;;;;;;;;;11.50;9.75;;;;;18.13;42.63;103034.38;5038504;27;45523;-71
2023/01/25 07:46:36;;;;;;;;;10.25;8.75;;;;;18.69;42.80;103023.44;5040618;27;45445;-71
2023/01/25 07:49:02;;;;;;;;;11.25;10.00;;;;;19.28;42.49;103032.06;5040444;28;46281;-71
2023/01/25 07:51:29;;;;;;;;;12.25;10.50;;;;;19.74;42.17;103013.31;5038629;28;45772;-72
2023/01/25 07:53:59;;;;;;;;;9.25;9.25;;;;;20.37;41.86;103052.91;5037943;28;45458;-72
2023/01/25 07:56:30;;;;;;;;;12.75;10.75;;;;;20.62;41.96;103029.84;5058908;27;45410;-72
2023/01/25 07:58:57;;;;;;;;;8.25;8.00;;;;;21.07;41.46;103054.13;5047503;28;48494;-72
2023/01/25 08:01:26;;;;;;;;;11.25;8.75;;;;;21.29;40.99;103034.72;5051182;27;45414;-73
2023/01/25 08:03:54;;;;;;;;;11.25;10.00;;;;;21.62;41.17;103053.41;5032523;28;45410;-73
2023/01/25 08:06:29;;;;;;;;;10.75;8.00;;;;;21.71;40.76;103025.78;5049705;27;45492;-68
2023/01/25 08:08:56;;;;;;;;;9.50;9.50;;;;;22.13;40.31;103055.50;5043542;27;46175;-68
2023/01/25 08:11:25;;;;;;;;;12.25;10.25;;;;;22.32;40.41;103059.69;5051804;27;45297;-67
2023/01/25 08:13:51;;;;;;;;;9.00;6.00;;;;;22.47;40.35;103055.91;5046622;28;45401;-68
2023/01/25 08:16:18;;;;;;;;;10.00;8.00;;;;;22.69;40.18;103057.19;5038896;28;45466;-67
2023/01/25 08:18:53;;;;;;;;;10.00;7.50;;;;;22.89;39.38;103055.75;5047228;28;45520;-67
2023/01/25 08:21:18;;;;;;;;;9.00;8.25;;;;;23.07;39.44;103058.16;5042606;28;45352;-67
2023/01/25 08:23:44;;;;;;;;;10.00;8.25;;;;;23.26;39.50;103060.41;5045945;28;45517;-67
2023/01/25 08:26:12;;;;;;;;;12.00;9.33;;;;;23.45;39.21;103064.50;5047383;28;45441;-68
2023/01/25 08:28:37;;;;;;;;;9.00;6.00;;;;;23.63;38.92;103056.03;5046881;27;45460;-68
2023/01/25 08:31:09;;;;;;;;;8.00;8.00;;;;;23.82;39.23;103058.22;5028716;28;45428;-67
2023/01/25 08:33:34;;;;;;;;;7.67;7.67;;;;;23.99;39.36;103059.66;5037330;28;45430;-68
2023/01/25 08:36:00;;;;;;;;;10.67;8.67;;;;;24.13;39.09;103041.50;5059159;27;45627;-68
2023/01/25 08:38:25;;;;;;;;;6.67;5.33;;;;;24.38;38.90;103066.75;5025377;27;46446;-67
2023/01/25 08:40:50;;;;;;;;;10.00;8.00;;;;;24.54;38.70;103053.75;5049800;28;45444;-67
2023/01/25 08:43:16;;;;;;;;;6.67;6.67;;;;;24.73;38.55;103057.75;5045682;27;45614;-68
2023/01/25 08:45:41;;;;;;;;;8.33;7.67;;;;;24.88;38.33;103057.53;5032454;28;45326;-68
2023/01/25 08:48:06;;;;;;;;;11.33;10.00;;;;;24.94;38.27;103049.78;5044076;28;46565;-71
2023/01/25 08:50:32;;;;;;;;;11.67;9.67;;;;;25.09;37.74;103057.69;5032895;27;51076;-70
2023/01/25 08:52:57;;;;;;;;;11.33;11.33;;;;;25.15;38.12;103048.16;5027530;27;45765;-69
2023/01/25 08:55:22;;;;;;;;;13.00;12.67;;;;;25.19;37.94;103046.91;5035699;28;48190;-69
2023/01/25 08:57:48;;;;;;;;;15.33;13.33;;;;;25.25;37.79;103044.56;5034252;27;49226;-69
2023/01/25 09:00:14;;;;;;;;;15.33;14.33;;;;;25.29;37.51;103047.91;5034538;28;45501;-67
2023/01/25 09:02:39;;;;;;;;;14.67;14.00;;;;;25.32;37.39;103046.78;5032770;27;45428;-67
2023/01/25 09:05:05;;;;;;;;;17.00;14.00;;;;;25.32;37.53;103047.66;5019126;28;48364;-67
2023/01/25 09:07:31;;;;;;;;;13.00;11.00;;;;;25.31;37.45;103045.06;5030600;27;47498;-68
2023/01/25 09:09:57;;;;;;;;;14.67;11.67;;;;;25.34;37.46;103050.25;5041106;27;45586;-68
2023/01/25 09:12:22;;;;;;;;;16.33;14.00;;;;;25.34;37.36;103050.25;5032945;27;45649;-67
2023/01/25 09:14:48;;;;;;;;;12.00;11.67;;;;;25.34;37.41;103042.94;5032023;27;45422;-67
2023/01/25 09:17:13;;;;;;;;;15.00;13.00;;;;;25.38;37.11;103043.59;5032416;27;46613;-67
2023/01/25 09:19:38;;;;;;;;;13.00;11.33;;;;;25.42;36.91;103052.34;5021961;28;46833;-68
2023/01/25 09:22:03;;;;;;;;;11.00;10.00;;;;;25.45;36.84;103046.63;5028150;28;47023;-67
2023/01/25 09:24:29;;;;;;;;;14.67;12.00;;;;;25.52;37.18;103045.16;5029665;27;46255;-68
2023/01/25 09:26:54;;;;;;;;;13.67;12.33;;;;;25.59;37.11;103037.38;5029829;27;45455;-67
2023/01/25 09:29:19;;;;;;;;;9.33;9.33;;;;;25.65;37.03;103048.63;5020679;28;45940;-67
2023/01/25 09:31:45;;;;;;;;;11.67;9.67;;;;;25.76;37.03;103042.28;5029622;28;45621;-68
2023/01/25 09:34:12;;;;;;;;;10.67;10.00;;;;;25.81;37.12;103044.63;5031439;28;48611;-68
2023/01/25 09:36:38;;;;;;;;;12.33;12.33;;;;;25.88;36.53;103037.66;5035583;27;45699;-67
2023/01/25 09:39:03;;;;;;;;;9.00;9.00;;;;;25.91;36.81;103040.13;5093023;27;45581;-67
2023/01/25 09:41:53;;;;;;;;;12.67;8.33;;;;;25.96;36.58;103033.44;5031108;28;45486;-68
2023/01/25 09:44:24;;;;;;;;;10.00;10.00;;;;;26.01;36.64;103032.06;5029304;28;45532;-67
2023/01/25 09:46:55;;;;;;;;;11.33;10.33;;;;;26.05;36.69;103036.25;5031418;27;45496;-68
2023/01/25 09:49:37;;;;;;;;;8.33;8.33;;;;;26.04;36.53;103029.06;5032513;28;45520;-68
2023/01/25 09:52:11;;;;;;;;;11.67;9.33;;;;;26.11;36.64;103037.56;5031405;27;45926;-67
2023/01/25 09:54:40;;;;;;;;;9.00;9.00;;;;;26.11;36.32;103036.72;5028584;27;45493;-67
2023/01/25 09:57:20;;;;;;;;;8.33;8.33;;;;;26.13;36.60;103035.59;5031737;28;47209;-70
2023/01/25 09:59:49;;;;;;;;;13.33;11.33;;;;;26.15;36.62;103036.31;5026353;28;45991;-68
2023/01/25 10:02:33;;;;;;;;;16.00;15.67;;;;;26.18;36.68;103033.34;5031758;28;45378;-68
2023/01/25 10:05:10;;;;;;;;;23.67;20.00;;;;;26.21;36.05;103040.38;5031774;28;45560;-68
2023/01/25 10:07:58;;;;;;;;;29.33;23.33;;;;;26.26;36.04;103038.16;5031989;27;46222;-67
2023/01/25 10:10:41;;;;;;;;;22.33;17.00;;;;;26.29;36.02;103043.31;5031742;28;45776;-69
2023/01/25 10:13:16;;;;;;;;;18.67;16.33;;;;;26.38;36.15;103038.09;5036496;28;45287;-70
2023/01/25 10:15:45;;;;;;;;;25.00;18.00;;;;;26.45;36.50;103039.31;5031504;27;45600;-68
2023/01/25 10:18:24;;;;;;;;;25.00;24.00;;;;;26.49;36.53;103039.88;5019737;27;45482;-72
2023/01/25 10:21:09;;;;;;;;;24.75;24.75;;;;;26.52;35.75;103037.75;5037502;28;45359;-72
2023/01/25 10:23:40;;;;;;;;;29.00;24.33;;;;;26.52;35.76;103034.19;5029217;28;45410;-72
2023/01/25 10:26:26;;;;;;;;;33.25;29.75;;;;;26.51;35.71;103043.31;5029297;28;45880;-67
2023/01/25 10:29:20;;;;;;;;;32.75;31.00;;;;;26.49;36.01;103034.44;5042898;28;48593;-68
2023/01/25 10:31:53;;;;;;;;;33.75;31.00;;;;;26.47;35.77;103037.28;5024261;27;45565;-69
2023/01/25 10:34:25;;;;;;;;;34.50;29.75;;;;;26.47;36.29;103033.69;5023853;28;45421;-69
2023/01/25 10:36:54;;;;;;;;;29.75;27.25;;;;;26.46;35.56;103029.25;5029561;27;45381;-68
2023/01/25 10:39:20;;;;;;;;;28.75;27.50;;;;;26.42;35.49;103031.38;5027266;27;46478;-67
2023/01/25 10:41:48;;;;;;;;;35.00;29.75;;;;;26.44;35.68;103035.69;5026177;28;45742;-67
2023/01/25 10:44:26;;;;;;;;;31.00;29.00;;;;;26.45;35.71;103025.69;5030061;28;45464;-68
2023/01/25 10:47:19;;;;;;;;;28.75;28.00;;;;;26.53;35.44;103028.59;5030899;27;45512;-70
2023/01/25 10:49:50;;;;;;;;;33.67;30.33;;;;;26.49;36.12;103021.72;5026471;28;45767;-71
2023/01/25 10:52:19;;;;;;;;;35.00;30.00;;;;;26.59;35.46;103021.75;5029768;28;45417;-71
2023/01/25 10:54:45;;;;;;;;;25.33;25.33;;;;;26.61;35.68;103027.06;5065509;27;45468;-69
2023/01/25 10:57:17;;;;;;;;;31.75;27.50;;;;;26.66;35.59;103024.78;5046053;27;45561;-68
2023/01/25 10:59:45;;;;;;;;;57.00;46.50;;;;;26.70;35.77;103023.53;5029473;27;46523;-67
2023/01/25 11:02:35;;;;;;;;;58.50;46.50;;;;;26.67;35.23;103019.22;5031098;27;45319;-68
2023/01/25 11:05:28;;;;;;;;;64.25;49.25;;;;;26.57;35.05;103016.44;5029922;27;45449;-68
2023/01/25 11:07:54;;;;;;;;;64.50;51.25;;;;;26.46;35.18;103012.91;5030934;28;45490;-68
2023/01/25 11:10:38;;;;;;;;;67.25;52.00;;;;;26.29;34.66;103004.38;5031418;27;46256;-68
2023/01/25 11:13:32;;;;;;;;;66.00;50.00;;;;;26.15;34.68;103008.22;5030331;28;45356;-68
2023/01/25 11:16:03;;;;;;;;;63.00;48.75;;;;;26.04;34.62;103007.28;5029699;27;45594;-70
2023/01/25 11:18:33;;;;;;;;;67.75;51.50;;;;;25.92;35.15;102995.59;5030648;28;45446;-68
2023/01/25 11:21:03;;;;;;;;;66.50;50.75;;;;;25.91;34.96;102998.44;5031190;28;45512;-68
2023/01/25 11:23:30;;;;;;;;;57.75;47.50;;;;;25.86;34.69;102985.25;5030685;28;45412;-68
2023/01/25 11:26:18;;;;;;;;;66.00;50.00;;;;;25.83;34.96;102987.38;5029717;27;45405;-68
2023/01/25 11:28:49;;;;;;;;;64.75;49.00;;;;;25.77;34.40;102983.31;5020902;28;45360;-68
2023/01/25 11:31:19;;;;;;;;;59.50;46.75;;;;;25.70;34.32;102982.13;5030518;28;46320;-68
2023/01/25 11:33:45;;;;;;;;;60.25;47.00;;;;;25.60;34.23;102982.88;5029975;27;45428;-68
2023/01/25 11:36:29;;;;;;;;;48.25;37.00;;;;;25.52;34.84;102975.34;5030374;28;45410;-68
2023/01/25 11:39:17;;;;;;;;;61.25;47.75;;;;;25.47;34.45;102974.84;5012306;28;45599;-68
2023/01/25 11:41:58;;;;;;;;;58.75;47.50;;;;;25.43;34.42;102964.34;5001796;28;46174;-68
2023/01/25 11:44:26;;;;;;;;;58.00;46.75;;;;;25.42;34.63;102965.34;5029931;27;45396;-68
2023/01/25 11:47:09;;;;;;;;;54.00;43.75;;;;;25.36;34.84;102962.16;5029725;28;45545;-68
2023/01/25 11:50:02;;;;;;;;;56.25;46.25;;;;;25.37;34.61;102960.28;5043333;27;45485;-68
2023/01/25 11:52:33;;;;;;;;;57.50;45.50;;;;;25.29;34.90;102938.34;5022242;27;45535;-71
2023/01/25 11:55:09;;;;;;;;;57.50;45.25;;;;;25.29;34.79;102947.34;5013474;27;45763;-69
2023/01/25 11:57:54;;;;;;;;;59.00;47.50;;;;;25.24;34.67;102938.69;5011570;27;45372;-69
2023/01/25 12:00:39;;;;;;;;;57.75;42.75;;;;;25.22;34.40;102937.97;5010590;27;45533;-68
2023/01/25 12:03:15;;;;;;;;;52.50;41.25;;;;;25.06;34.23;102893.03;5025308;28;45452;-67
2023/01/25 12:06:05;;;;;;;;;53.25;40.75;;;;;25.10;34.54;102890.94;5057661;27;45525;-69
2023/01/25 12:09:11;;;;;;;;;54.25;41.75;;;;;25.18;34.14;102865.84;5030028;28;45464;-70
2023/01/25 12:11:46;;;;;;;;;53.25;42.00;;;;;25.44;34.32;102889.97;5027122;28;45604;-69
2023/01/25 12:14:30;;;;;;;;;47.00;38.50;;;;;25.54;34.83;102874.59;5027260;27;46362;-71
2023/01/25 12:17:03;;;;;;;;;48.25;39.25;;;;;25.57;34.44;102860.78;5023871;27;45552;-68
2023/01/25 12:19:53;;;;;;;;;49.50;39.00;;;;;25.75;34.83;102874.63;5029982;28;45518;-69
2023/01/25 12:22:54;;;;;;;;;48.50;38.25;;;;;25.75;35.20;102835.72;5018737;28;45431;-69
2023/01/25 12:25:43;;;;;;;;;49.75;37.75;;;;;26.03;34.71;102853.19;5030148;27;45825;-69
2023/01/25 12:28:21;;;;;;;;;44.00;33.75;;;;;26.14;34.68;102843.22;5030249;28;45519;-69
2023/01/25 12:30:58;;;;;;;;;42.25;35.25;;;;;26.18;34.37;102831.06;5028623;28;45625;-69
2023/01/25 12:33:50;;;;;;;;;41.75;35.75;;;;;26.38;34.32;102836.63;5021306;28;45535;-69
2023/01/25 12:36:28;;;;;;;;;43.25;34.50;;;;;26.40;34.18;102827.31;5032171;27;45525;-70
2023/01/25 12:39:15;;;;;;;;;42.00;33.75;;;;;26.49;34.31;102825.66;5021303;28;46463;-70
2023/01/25 12:41:47;;;;;;;;;40.00;34.50;;;;;26.34;34.09;102786.19;5035721;28;45458;-68
2023/01/25 12:44:28;;;;;;;;;45.25;37.00;;;;;26.52;34.47;102819.91;5033388;27;45393;-71
2023/01/25 12:47:09;;;;;;;;;47.50;34.50;;;;;26.51;33.78;102807.31;5015055;28;46383;-70
2023/01/25 12:49:50;;;;;;;;;41.00;32.00;;;;;26.50;33.77;102804.72;5030492;27;45468;-70
2023/01/25 12:52:39;;;;;;;;;43.75;35.75;;;;;26.40;34.01;102777.47;5031001;28;45524;-70
2023/01/25 12:55:11;;;;;;;;;47.75;33.75;;;;;26.42;34.35;102789.06;5032195;27;45579;-69
2023/01/25 12:57:55;;;;;;;;;36.50;30.75;;;;;26.44;34.02;102787.94;5033050;28;45486;-68
2023/01/25 13:00:31;;;;;;;;;34.00;31.75;;;;;26.43;34.37;102771.75;5030471;28;45648;-67
2023/01/25 13:03:40;;;;;;;;;39.50;33.00;;;;;26.53;34.04;102777.22;5054000;27;45511;-67
2023/01/25 13:06:21;;;;;;;;;36.25;32.00;;;;;26.59;33.98;102768.47;5031017;27;45517;-67
2023/01/25 13:09:03;;;;;;;;;38.75;31.75;;;;;26.65;34.20;102764.34;5026256;28;45544;-67
2023/01/25 13:11:38;;;;;;;;;37.75;32.25;;;;;26.72;33.88;102765.47;5031917;28;45376;-67
2023/01/25 13:14:16;;;;;;;;;34.50;28.25;;;;;26.78;34.36;102753.16;5034170;28;45436;-68
2023/01/25 13:16:50;;;;;;;;;33.00;30.00;;;;;26.81;33.89;102752.91;5028098;28;45437;-66
2023/01/25 13:19:27;;;;;;;;;37.50;29.75;;;;;26.84;34.22;102750.75;5026543;28;45530;-67
2023/01/25 13:21:57;;;;;;;;;37.00;29.50;;;;;26.80;34.42;102735.69;5034221;28;45823;-67
2023/01/25 13:24:31;;;;;;;;;35.00;30.33;;;;;26.87;34.15;102746.00;5039372;27;45386;-67
2023/01/25 13:27:02;;;;;;;;;37.25;32.00;;;;;26.85;34.21;102735.22;5028058;28;45481;-68
2023/01/25 13:29:31;;;;;;;;;29.67;27.33;;;;;26.84;33.76;102738.97;5008163;28;48027;-69
2023/01/25 13:31:57;;;;;;;;;34.33;28.67;;;;;26.78;33.74;102736.81;5031922;27;45437;-70
2023/01/25 13:34:34;;;;;;;;;31.33;29.00;;;;;26.75;33.80;102731.66;5032045;27;46822;-72
2023/01/25 13:37:16;;;;;;;;;28.67;26.00;;;;;26.72;33.96;102730.06;5019593;28;45828;-68
2023/01/25 13:39:44;;;;;;;;;36.50;29.25;;;;;26.73;34.33;102731.78;5021432;28;46393;-67
2023/01/25 13:42:10;;;;;;;;;33.00;25.67;;;;;26.73;33.63;102728.22;5028459;28;46968;-67
2023/01/25 13:44:41;;;;;;;;;30.67;25.33;;;;;26.74;34.29;102722.63;5031327;27;45400;-67
2023/01/25 13:47:11;;;;;;;;;30.50;27.50;;;;;26.78;33.62;102726.81;5030813;28;45788;-68
2023/01/25 13:49:42;;;;;;;;;35.33;26.00;;;;;26.82;33.83;102724.66;5033847;27;47733;-68
2023/01/25 13:52:14;;;;;;;;;29.00;23.67;;;;;26.91;34.18;102721.06;5026945;27;45546;-68
2023/01/25 13:54:43;;;;;;;;;33.67;28.00;;;;;26.96;34.36;102710.63;5028396;27;45484;-69
2023/01/25 13:57:12;;;;;;;;;36.00;27.33;;;;;27.07;33.80;102708.75;5032096;27;45524;-68
2023/01/25 13:59:38;;;;;;;;;30.00;26.33;;;;;27.09;33.91;102704.88;5029651;28;45793;-68
2023/01/25 14:02:17;;;;;;;;;27.67;24.33;;;;;27.16;34.13;102716.03;5044807;27;45653;-67
2023/01/25 14:04:45;;;;;;;;;30.00;26.67;;;;;27.19;34.17;102713.03;5030762;27;45768;-68
2023/01/25 14:07:16;;;;;;;;;25.75;24.25;;;;;27.21;33.53;102711.00;5029112;28;45582;-67
2023/01/25 14:09:43;;;;;;;;;25.33;22.33;;;;;27.22;33.93;102706.44;5050555;27;46625;-68
2023/01/25 14:12:11;;;;;;;;;26.00;20.67;;;;;27.20;33.62;102700.25;5030036;28;45359;-68
2023/01/25 14:14:37;;;;;;;;;54.50;42.75;;;;;27.19;33.54;102696.69;5028582;28;45443;-72
2023/01/25 14:17:08;;;;;;;;;54.50;43.75;;;;;27.14;33.56;102695.41;5012674;27;45527;-70
2023/01/25 14:19:39;;;;;;;;;50.75;41.50;;;;;27.04;33.88;102699.00;5027892;28;45373;-68
2023/01/25 14:22:24;;;;;;;;;52.00;42.25;;;;;26.95;33.79;102706.19;5021873;27;45882;-69
2023/01/25 14:25:16;;;;;;;;;47.75;38.25;;;;;26.92;33.22;102700.09;5024723;28;45531;-68
2023/01/25 14:27:43;;;;;;;;;50.75;39.25;;;;;26.89;33.45;102701.25;5029279;28;45365;-70
2023/01/25 14:30:24;;;;;;;;;49.75;38.75;;;;;26.86;33.25;102687.06;5031811;28;45464;-71
2023/01/25 14:32:51;;;;;;;;;51.50;38.75;;;;;26.93;34.03;102699.13;5030573;27;46282;-69
2023/01/25 14:35:30;;;;;;;;;46.50;38.25;;;;;26.93;33.89;102702.72;5034666;28;45350;-69
2023/01/25 14:37:56;;;;;;;;;44.75;35.00;;;;;26.97;33.67;102697.84;5027766;28;45652;-69
2023/01/25 14:40:24;;;;;;;;;48.50;37.50;;;;;27.02;33.34;102698.25;5039150;28;46181;-70
2023/01/25 14:42:51;;;;;;;;;45.00;37.50;;;;;27.09;33.42;102701.28;5027024;27;45380;-69
2023/01/25 14:45:18;;;;;;;;;45.00;38.00;;;;;27.15;33.36;102697.97;5028501;28;45520;-68
2023/01/25 14:47:43;;;;;;;;;45.25;34.50;;;;;27.19;33.68;102693.97;5029557;28;45385;-68
2023/01/25 14:50:38;;;;;;;;;44.75;35.50;;;;;27.28;33.44;102697.66;5030307;27;53588;-68
2023/01/25 14:53:19;;;;;;;;;41.00;36.00;;;;;27.33;33.42;102699.94;5020197;28;45481;-68
2023/01/25 14:55:49;;;;;;;;;42.25;35.00;;;;;27.36;33.48;102694.19;5023441;28;45567;-68
2023/01/25 14:58:21;;;;;;;;;41.75;32.75;;;;;27.36;33.33;102678.72;5034992;28;46361;-69
2023/01/25 15:00:52;;;;;;;;;40.25;35.00;;;;;27.43;33.86;102689.00;5023061;28;45888;-67
2023/01/25 15:03:20;;;;;;;;;38.00;32.75;;;;;27.43;33.85;102681.69;5013934;28;45841;-67
2023/01/25 15:05:46;;;;;;;;;34.75;33.00;;;;;27.43;34.00;102676.22;5029345;28;45502;-67
2023/01/25 15:08:11;;;;;;;;;31.50;30.25;;;;;27.45;33.53;102685.13;5032666;28;45454;-66
2023/01/25 15:10:52;;;;;;;;;40.00;35.25;;;;;27.46;33.32;102684.13;5029379;27;46194;-67
2023/01/25 15:13:21;;;;;;;;;38.00;31.50;;;;;27.45;33.17;102681.53;5031407;28;45845;-70
2023/01/25 15:15:57;;;;;;;;;36.50;31.75;;;;;27.47;33.30;102680.38;5031133;28;45755;-70
2023/01/25 15:18:40;;;;;;;;;30.00;27.75;;;;;27.47;33.71;102691.28;5021727;28;45520;-71
2023/01/25 15:21:10;;;;;;;;;31.50;30.25;;;;;27.46;33.21;102683.28;5025632;28;46543;-70
2023/01/25 15:23:35;;;;;;;;;36.75;31.50;;;;;27.42;33.21;102676.41;5035253;28;45411;-70
2023/01/25 15:26:02;;;;;;;;;30.75;29.50;;;;;27.44;33.78;102682.53;5033480;28;45541;-70
2023/01/25 15:28:33;;;;;;;;;36.00;31.00;;;;;27.49;33.22;102685.69;5029069;28;45595;-67
2023/01/25 15:30:59;;;;;;;;;33.00;31.75;;;;;27.55;33.93;102686.97;5025791;27;48780;-70
2023/01/25 15:33:27;;;;;;;;;31.67;30.67;;;;;27.58;33.42;102692.97;5030764;28;45648;-69
2023/01/25 15:35:53;;;;;;;;;24.25;23.50;;;;;27.60;33.38;102696.47;5027242;28;45504;-69
2023/01/25 15:38:20;;;;;;;;;33.00;29.33;;;;;27.65;33.59;102693.28;5032760;28;45482;-71
2023/01/25 15:40:46;;;;;;;;;32.33;30.00;;;;;27.67;33.28;102704.88;5043583;28;48137;-69
2023/01/25 15:43:13;;;;;;;;;30.67;28.33;;;;;27.68;33.17;102703.91;5013560;27;45474;-69
2023/01/25 15:45:47;;;;;;;;;28.67;28.00;;;;;27.65;33.12;102704.19;5030289;28;45390;-70
2023/01/25 15:48:15;;;;;;;;;31.67;28.33;;;;;27.58;33.03;102705.75;5040323;27;45722;-70
2023/01/25 15:50:41;;;;;;;;;28.00;27.67;;;;;27.53;33.45;102706.19;5051894;27;46192;-69
2023/01/25 15:53:17;;;;;;;;;30.33;25.67;;;;;27.48;33.57;102700.34;5026877;27;45546;-69
2023/01/25 15:55:49;;;;;;;;;24.33;20.67;;;;;27.44;33.77;102699.78;5034579;27;45880;-69
2023/01/25 15:58:34;;;;;;;;;29.67;26.67;;;;;27.43;33.50;102700.75;5032044;28;45697;-69
2023/01/25 16:01:00;;;;;;;;;42.50;33.50;;;;;27.35;33.58;102693.31;5026282;27;46722;-69
2023/01/25 16:03:27;;;;;;;;;39.33;33.00;;;;;27.25;32.87;102702.56;5027744;27;45634;-69
2023/01/25 16:05:56;;;;;;;;;36.50;32.50;;;;;27.09;32.79;102699.41;5033037;28;45539;-66
2023/01/25 16:08:22;;;;;;;;;37.25;32.50;;;;;26.88;32.42;102680.47;5034408;27;45519;-67
2023/01/25 16:10:47;;;;;;;;;39.75;33.25;;;;;26.77;32.85;102683.34;5031265;27;45475;-67
2023/01/25 16:13:13;;;;;;;;;37.25;30.50;;;;;26.66;33.08;102689.81;5037630;28;45566;-70
2023/01/25 16:15:38;;;;;;;;;36.00;32.00;;;;;26.67;32.79;102692.38;5035185;28;45459;-68
2023/01/25 16:18:04;;;;;;;;;35.50;30.50;;;;;26.72;32.62;102689.22;5038001;28;45507;-68
2023/01/25 16:20:29;;;;;;;;;34.25;29.25;;;;;26.79;32.46;102689.50;5016854;27;46971;-67
2023/01/25 16:22:55;;;;;;;;;38.25;33.00;;;;;26.89;33.14;102693.09;5029623;27;45557;-69
2023/01/25 16:25:20;;;;;;;;;35.25;30.75;;;;;26.96;33.25;102694.28;5024852;27;48051;-69
2023/01/25 16:27:47;;;;;;;;;36.33;30.00;;;;;27.06;32.96;102699.69;5010173;28;45506;-69
2023/01/25 16:30:29;;;;;;;;;38.75;32.50;;;;;27.15;32.91;102695.25;5032688;28;46108;-69
2023/01/25 16:32:55;;;;;;;;;33.00;27.33;;;;;27.19;32.45;102691.25;5032181;28;45578;-68
2023/01/25 16:35:21;;;;;;;;;33.67;29.33;;;;;27.22;33.03;102701.81;5022745;27;45538;-68
2023/01/25 16:37:46;;;;;;;;;35.25;32.00;;;;;27.26;32.44;102698.81;5022490;28;45461;-68
2023/01/25 16:40:35;;;;;;;;;32.00;26.67;;;;;27.32;32.80;102704.53;5058766;27;45747;-69
2023/01/25 16:43:01;;;;;;;;;28.33;26.67;;;;;27.35;32.80;102701.50;5027330;27;45527;-70
2023/01/25 16:45:27;;;;;;;;;28.33;23.67;;;;;27.38;32.91;102694.91;5032692;28;45357;-69
2023/01/25 16:47:52;;;;;;;;;25.33;24.67;;;;;27.38;32.24;102699.50;5028903;27;45833;-67
2023/01/25 16:50:20;;;;;;;;;33.00;23.33;;;;;27.36;32.41;102689.63;5037911;27;47168;-68
2023/01/25 16:52:48;;;;;;;;;29.33;28.00;;;;;27.32;32.90;102696.38;5028054;27;45539;-68
2023/01/25 16:55:14;;;;;;;;;29.67;26.33;;;;;27.32;32.34;102692.75;5027466;27;45457;-67
2023/01/25 16:57:42;;;;;;;;;32.67;27.67;;;;;27.32;32.30;102687.31;5032431;28;45421;-66
2023/01/25 17:00:11;;;;;;;;;27.33;23.67;;;;;27.34;32.16;102698.94;5025591;28;45332;-68
2023/01/25 17:02:37;;;;;;;;;26.33;26.33;;;;;27.28;32.87;102696.78;5021423;27;45577;-69
2023/01/25 17:05:05;;;;;;;;;25.00;23.67;;;;;27.19;32.12;102693.97;5026542;28;45601;-68
2023/01/25 17:07:31;;;;;;;;;32.33;28.33;;;;;27.19;32.44;102706.72;5019611;28;45721;-68
2023/01/25 17:09:57;;;;;;;;;28.67;27.00;;;;;27.15;32.75;102717.06;5030125;27;45641;-71
2023/01/25 17:12:22;;;;;;;;;33.25;29.00;;;;;26.94;32.61;102692.69;5029026;28;45440;-73
2023/01/25 17:14:48;;;;;;;;;31.33;29.00;;;;;26.81;32.53;102696.53;5035703;27;45421;-69
2023/01/25 17:17:13;;;;;;;;;26.33;22.33;;;;;26.87;32.55;102710.56;5032071;28;45412;-72
2023/01/25 17:19:38;;;;;;;;;31.00;27.33;;;;;26.75;32.58;102707.13;5033358;28;46209;-73
